Airfield :
LOGIN :

Register | Disclaimer

   EN    FR    IT 

 










Legend :    VFR   Marginal VFR   IFR   Intensive IFR   Very Intensive IFR
Visi :
Ceiling :
>= 8 km
>= 3000ft
5 to 8 km
1000 to 3000 ft
1500m to 5 km
500 to 1000 ft
800 to 1500m
200 to 500 ft
< 800m
< 200 ft
Symbols :   Thunderstorms  Fog  Heavy snow  Heavy precipitations  Wind > 20 kt
SIGMETs :     Misc.  Thunderstorms  Icing  Turbulence  Mountain Waves  Volcanic Ashes







- Airport Elevation : 1299 ft


EDTY - Adolf Würth

CURRENT METAR :
  • 230650Z 23006KT 7000 FEW030 BKN210 05/05 Q1028

EXPIRED METARs :
  • 230620Z 21003KT 5000 BR FEW015 05/05 Q1028
  • 230550Z 23004KT 3800 BR FEW025 05/05 Q1028
  • 230520Z 24004KT 6000 BKN035 05/05 Q1028
  • 230450Z 21004KT 7000 BKN031 06/06 Q1028
  • 230420Z 20004KT 6000 BKN031 06/06 Q1029

TAF TAF EDTY
Valid from the 23 at 06:00 until the 23 at 15:00 UTC


230500Z 2306/2315 20004KT 6000 BKN030
TEMPO 2306/2308 BKN010
BECMG 2307/2309 24012KT
BECMG 2310/2312 25015G30KT
No reported NOTAMs for that airfield.



MET'MAP, your aeronautical weather chart ! - Copyright ORBIFLY December 2007 - Disclaimer

ORBIFLY MET'MAP TEAM :

Programming & Development : Alexandra Zaïnal
Concept & Development : Baudouin d'Aumeries
Co-Development & Prog : Marc-Olivier Méhu
Technical & hardware support : Manuel Goepfert

Contact : metmap@orbifly.com




SOURCES & CREDITS :

   NOAA